createdAt,value
2022-12-28T00:02:33.931Z,6.30
2022-12-28T00:06:17.146Z,5.43
2022-12-28T00:09:59.800Z,5.83
2022-12-28T00:13:42.488Z,4.10
2022-12-28T00:17:26.538Z,3.57
2022-12-28T00:21:09.217Z,3.40
2022-12-28T00:24:51.879Z,5.70
2022-12-28T00:28:34.718Z,5.50
2022-12-28T00:32:17.377Z,5.17
2022-12-28T00:36:02.723Z,5.27
2022-12-28T00:39:47.358Z,5.67
2022-12-28T00:43:30.047Z,3.40
2022-12-28T00:47:12.721Z,3.43
2022-12-28T00:51:03.878Z,3.47
2022-12-28T00:54:46.552Z,2.53
2022-12-28T00:58:29.205Z,4.83
2022-12-28T01:02:11.918Z,3.20
2022-12-28T01:05:54.639Z,3.83
2022-12-28T01:09:38.656Z,2.57
2022-12-28T01:13:21.269Z,4.07
2022-12-28T01:17:04.092Z,3.87
2022-12-28T01:20:46.695Z,2.40
2022-12-28T01:24:29.383Z,4.33
2022-12-28T01:28:13.365Z,2.90
2022-12-28T01:31:56.057Z,3.20
2022-12-28T01:35:38.766Z,3.93
2022-12-28T01:39:21.428Z,2.67
2022-12-28T01:43:07.859Z,2.27
2022-12-28T01:46:53.603Z,2.30
2022-12-28T01:50:36.337Z,2.73
2022-12-28T01:54:20.575Z,3.30
2022-12-28T01:58:06.589Z,2.73
2022-12-28T02:01:51.183Z,2.37
2022-12-28T02:05:37.754Z,3.37
2022-12-28T02:09:22.918Z,2.10
2022-12-28T02:13:06.254Z,3.00
2022-12-28T02:16:49.145Z,2.23
2022-12-28T02:20:40.025Z,2.00
2022-12-28T02:24:49.820Z,2.10
2022-12-28T02:29:21.831Z,1.70
2022-12-28T02:33:09.712Z,2.40
2022-12-28T02:36:56.645Z,1.47
2022-12-28T02:40:42.886Z,2.13
2022-12-28T02:44:44.342Z,2.03
2022-12-28T02:48:44.630Z,2.07
2022-12-28T02:52:37.026Z,1.70
2022-12-28T02:56:26.498Z,1.50
2022-12-28T03:00:11.991Z,1.77
2022-12-28T03:04:04.314Z,1.90
2022-12-28T03:08:10.542Z,1.53
2022-12-28T03:11:55.617Z,2.07
2022-12-28T03:15:39.874Z,1.87
2022-12-28T03:19:42.289Z,2.83
2022-12-28T03:23:43.679Z,1.87
2022-12-28T03:27:45.065Z,1.57
2022-12-28T03:31:30.609Z,2.07
2022-12-28T03:35:13.398Z,2.13
2022-12-28T03:39:01.899Z,1.80
2022-12-28T03:43:04.067Z,1.90
2022-12-28T03:46:50.851Z,2.00
2022-12-28T03:50:36.451Z,1.90
2022-12-28T03:54:19.680Z,1.50
2022-12-28T03:58:02.365Z,3.50
2022-12-28T04:01:45.276Z,2.00
2022-12-28T04:05:29.371Z,1.50
2022-12-28T04:09:12.073Z,2.70
2022-12-28T04:12:56.593Z,1.67
2022-12-28T04:16:39.311Z,2.30
2022-12-28T04:20:21.952Z,1.67
2022-12-28T04:24:06.604Z,2.33
2022-12-28T04:27:49.297Z,2.57
2022-12-28T04:31:32.122Z,2.03
2022-12-28T04:35:15.144Z,3.17
2022-12-28T04:38:59.429Z,3.33
2022-12-28T04:42:43.423Z,2.57
2022-12-28T04:46:26.174Z,1.87
2022-12-28T04:50:09.535Z,2.00
2022-12-28T04:53:52.798Z,2.23
2022-12-28T04:57:35.556Z,2.30
2022-12-28T05:01:20.712Z,2.57
2022-12-28T05:05:03.403Z,4.47
2022-12-28T05:08:46.343Z,1.30
2022-12-28T05:12:28.988Z,2.37
2022-12-28T05:16:13.261Z,2.50
2022-12-28T05:19:57.412Z,2.00
2022-12-28T05:23:40.472Z,2.67
2022-12-28T05:27:23.123Z,1.97
2022-12-28T05:31:08.163Z,1.50
2022-12-28T05:34:50.889Z,1.77
2022-12-28T05:38:35.575Z,1.37
2022-12-28T05:42:18.239Z,2.50
2022-12-28T05:46:04.797Z,1.90
2022-12-28T05:49:47.635Z,2.20
2022-12-28T05:53:31.419Z,1.30
2022-12-28T05:57:15.447Z,2.43
2022-12-28T06:01:05.640Z,1.80
2022-12-28T06:04:48.332Z,1.80
2022-12-28T06:08:31.029Z,1.43
2022-12-28T06:12:15.194Z,1.87
2022-12-28T06:15:57.896Z,2.53
2022-12-28T06:19:40.567Z,2.30
2022-12-28T06:23:23.767Z,2.00
2022-12-28T06:27:06.420Z,1.60
2022-12-28T06:30:52.769Z,1.50
2022-12-28T06:34:35.810Z,1.77
2022-12-28T06:38:18.503Z,2.03
2022-12-28T06:42:01.280Z,2.17
2022-12-28T06:45:44.021Z,1.37
2022-12-28T06:49:28.137Z,2.30
2022-12-28T06:53:10.940Z,2.17
2022-12-28T06:56:53.654Z,1.97
2022-12-28T07:00:36.334Z,3.30
2022-12-28T07:04:19.028Z,1.67
2022-12-28T07:08:06.442Z,2.03
2022-12-28T07:11:53.503Z,2.53
2022-12-28T07:15:37.252Z,3.27
2022-12-28T07:19:19.954Z,3.20
2022-12-28T07:23:04.120Z,3.00
2022-12-28T07:26:46.781Z,3.07
2022-12-28T07:30:29.765Z,1.70
2022-12-28T07:34:12.829Z,2.33
2022-12-28T07:37:55.692Z,2.63
2022-12-28T07:41:39.749Z,2.83
2022-12-28T07:45:22.435Z,1.60
2022-12-28T07:49:05.677Z,2.27
2022-12-28T07:52:48.385Z,1.93
2022-12-28T08:00:16.553Z,3.57
2022-12-28T08:04:01.019Z,3.70
2022-12-28T08:07:43.779Z,2.30
2022-12-28T08:11:27.925Z,1.67
2022-12-28T08:15:11.410Z,1.97
2022-12-28T08:18:56.288Z,1.70
2022-12-28T08:22:38.995Z,2.53
2022-12-28T08:26:22.811Z,2.80
2022-12-28T08:30:06.555Z,2.30
2022-12-28T08:33:49.735Z,2.73
2022-12-28T08:37:33.884Z,2.30
2022-12-28T08:41:18.177Z,2.07
2022-12-28T08:45:00.853Z,2.63
2022-12-28T08:48:44.073Z,4.23
2022-12-28T08:52:27.613Z,3.70
2022-12-28T08:56:13.652Z,1.73
2022-12-28T08:59:56.368Z,3.73
2022-12-28T09:03:39.972Z,3.10
2022-12-28T09:07:22.688Z,1.40
2022-12-28T09:11:06.930Z,1.97
2022-12-28T09:14:51.082Z,3.73
2022-12-28T09:18:34.036Z,1.73
2022-12-28T09:22:16.785Z,2.17
2022-12-28T09:26:05.027Z,1.53
2022-12-28T09:29:47.681Z,3.07
2022-12-28T09:34:23.436Z,1.40
2022-12-28T09:37:51.918Z,1.30
2022-12-28T09:41:40.591Z,1.60
2022-12-28T09:45:26.749Z,1.97
2022-12-28T09:49:14.864Z,1.73
2022-12-28T09:53:09.440Z,2.07
2022-12-28T09:56:52.961Z,1.63
2022-12-28T10:00:39.840Z,2.10
2022-12-28T10:04:24.354Z,2.40
2022-12-28T10:08:07.175Z,1.77
2022-12-28T10:11:49.826Z,1.40
2022-12-28T10:15:33.647Z,2.33
2022-12-28T10:19:18.571Z,1.53
2022-12-28T10:23:03.298Z,6.83
2022-12-28T10:26:48.098Z,2.20
2022-12-28T10:30:30.798Z,2.20
2022-12-28T10:34:17.647Z,2.13
2022-12-28T10:38:04.155Z,2.20
2022-12-28T10:41:46.910Z,2.73
2022-12-28T10:45:36.107Z,4.37
2022-12-28T10:49:18.895Z,1.97
2022-12-28T10:53:03.008Z,5.10
2022-12-28T10:56:49.781Z,2.77
2022-12-28T11:00:32.521Z,1.90
2022-12-28T11:04:18.648Z,1.97
2022-12-28T11:08:07.564Z,1.63
2022-12-28T11:11:52.337Z,1.93
2022-12-28T11:15:35.152Z,2.00
2022-12-28T11:19:18.353Z,2.23
2022-12-28T11:23:01.433Z,1.60
2022-12-28T11:26:48.088Z,2.07
2022-12-28T11:30:32.026Z,13.00
2022-12-28T11:34:19.387Z,2.23
2022-12-28T11:38:03.985Z,2.67
2022-12-28T11:42:19.049Z,2.03
2022-12-28T11:45:55.616Z,2.27
2022-12-28T11:49:38.463Z,1.53
2022-12-28T11:53:24.099Z,0.60
2022-12-28T11:57:11.128Z,2.67
2022-12-28T12:00:53.841Z,1.20
2022-12-28T12:04:39.503Z,1.27
2022-12-28T12:08:42.637Z,0.97
2022-12-28T12:12:38.129Z,0.90
2022-12-28T12:16:24.229Z,1.63
2022-12-28T12:20:15.131Z,2.10
2022-12-28T12:24:00.035Z,1.23
2022-12-28T12:27:46.637Z,1.93
2022-12-28T12:31:31.796Z,0.93
2022-12-28T12:35:18.041Z,2.17
2022-12-28T12:39:18.608Z,2.73
2022-12-28T12:43:15.505Z,2.50
2022-12-28T12:47:19.059Z,0.80
2022-12-28T12:51:17.437Z,1.30
2022-12-28T12:55:10.768Z,1.43
2022-12-28T12:59:05.937Z,1.20
2022-12-28T13:03:20.203Z,1.07
2022-12-28T13:07:06.060Z,2.37
2022-12-28T13:10:48.997Z,1.67
2022-12-28T13:14:33.916Z,3.20
2022-12-28T13:18:44.041Z,2.77
2022-12-28T13:22:28.671Z,1.83
2022-12-28T13:26:11.883Z,0.97
2022-12-28T13:29:56.057Z,2.50
2022-12-28T13:33:38.763Z,3.13
2022-12-28T13:37:22.194Z,1.43
2022-12-28T13:41:05.118Z,0.83
2022-12-28T13:44:50.741Z,4.40
2022-12-28T13:48:35.286Z,3.43
2022-12-28T13:52:22.171Z,1.87
2022-12-28T13:56:06.855Z,1.47
2022-12-28T13:59:51.172Z,2.67
2022-12-28T14:03:41.357Z,4.87
2022-12-28T14:07:28.739Z,1.60
2022-12-28T14:11:11.936Z,2.70
2022-12-28T14:14:54.858Z,1.93
2022-12-28T14:18:39.729Z,2.57
2022-12-28T14:22:27.167Z,1.90
2022-12-28T14:26:12.016Z,3.60
2022-12-28T14:29:55.405Z,1.03
2022-12-28T14:33:52.004Z,1.67
2022-12-28T14:37:38.360Z,4.90
2022-12-28T14:41:22.484Z,2.37
2022-12-28T14:45:23.331Z,1.50
2022-12-28T14:49:37.789Z,1.80
2022-12-28T14:53:21.132Z,3.10
2022-12-28T14:57:05.956Z,2.03
2022-12-28T15:00:57.587Z,2.00
2022-12-28T15:04:42.690Z,3.93
2022-12-28T15:08:27.285Z,3.90
2022-12-28T15:12:11.844Z,4.83
2022-12-28T15:15:55.992Z,5.67
2022-12-28T15:19:38.816Z,3.57
2022-12-28T15:23:23.092Z,2.33
2022-12-28T15:27:06.266Z,3.60
2022-12-28T15:30:48.949Z,3.03
2022-12-28T15:34:31.651Z,3.47
2022-12-28T15:38:14.313Z,3.77
2022-12-28T15:41:58.392Z,2.90
2022-12-28T15:45:41.091Z,3.43
2022-12-28T15:49:23.804Z,5.23
2022-12-28T15:53:06.484Z,3.83
2022-12-28T15:56:53.212Z,4.27
2022-12-28T16:00:39.495Z,3.13
2022-12-28T16:04:25.543Z,4.70
2022-12-28T16:08:08.157Z,6.20
2022-12-28T16:11:55.035Z,4.03
2022-12-28T16:15:39.546Z,7.40
2022-12-28T16:19:23.140Z,5.93
2022-12-28T16:23:05.878Z,4.10
2022-12-28T16:26:48.684Z,11.87
2022-12-28T16:30:31.396Z,4.67
2022-12-28T16:34:17.727Z,4.53
2022-12-28T16:38:00.399Z,6.23
2022-12-28T16:41:43.382Z,8.93
2022-12-28T16:45:26.280Z,6.50
2022-12-28T16:49:10.914Z,6.90
2022-12-28T16:52:54.980Z,5.67
2022-12-28T16:56:37.680Z,5.57
2022-12-28T17:00:20.541Z,9.07
2022-12-28T17:04:04.319Z,5.77
2022-12-28T17:07:47.373Z,5.63
2022-12-28T17:11:31.481Z,7.17
2022-12-28T17:15:14.195Z,5.53
2022-12-28T17:18:57.041Z,6.10
2022-12-28T17:22:40.103Z,6.40
2022-12-28T17:26:23.023Z,6.03
2022-12-28T17:30:07.844Z,5.70
2022-12-28T17:33:51.998Z,5.47
2022-12-28T17:37:34.734Z,3.57
2022-12-28T17:41:19.641Z,6.20
2022-12-28T17:45:06.154Z,8.47
2022-12-28T17:48:55.380Z,3.50
2022-12-28T17:52:38.149Z,5.07
2022-12-28T17:56:20.934Z,4.53
2022-12-28T18:00:04.245Z,4.57
2022-12-28T18:03:47.108Z,5.07
2022-12-28T18:07:31.205Z,6.60
2022-12-28T18:11:14.211Z,7.97
2022-12-28T18:14:56.895Z,6.47
2022-12-28T18:18:39.638Z,6.60
2022-12-28T18:22:23.062Z,6.03
2022-12-28T18:26:08.715Z,6.33
2022-12-28T18:29:52.156Z,6.63
2022-12-28T18:33:35.476Z,6.83
2022-12-28T18:37:18.199Z,9.00
2022-12-28T18:41:01.074Z,7.50
2022-12-28T18:44:45.261Z,7.37
2022-12-28T18:48:28.676Z,8.20
2022-12-28T18:52:11.378Z,9.03
2022-12-28T18:55:58.503Z,10.33
2022-12-28T18:59:41.169Z,8.27
2022-12-28T19:03:25.334Z,10.23
2022-12-28T19:07:08.185Z,8.80
2022-12-28T19:10:51.181Z,10.27
2022-12-28T19:14:33.855Z,11.07
2022-12-28T19:18:16.486Z,11.80
2022-12-28T19:22:00.490Z,8.23
2022-12-28T19:25:43.139Z,10.30
2022-12-28T19:29:25.812Z,9.50
2022-12-28T19:33:08.455Z,8.67
2022-12-28T19:36:51.142Z,8.87
2022-12-28T19:40:35.216Z,8.80
2022-12-28T19:44:20.367Z,7.53
2022-12-28T19:48:03.083Z,6.97
2022-12-28T19:51:45.768Z,11.40
2022-12-28T19:55:29.191Z,7.47
2022-12-28T19:59:13.254Z,8.27
2022-12-28T20:02:55.960Z,5.50
2022-12-28T20:06:38.974Z,7.87
2022-12-28T20:10:21.698Z,5.57
2022-12-28T20:14:05.320Z,7.40
2022-12-28T20:17:49.357Z,6.77
2022-12-28T20:21:32.365Z,6.07
2022-12-28T20:25:15.220Z,6.80
2022-12-28T20:28:59.181Z,6.07
2022-12-28T20:32:44.994Z,6.73
2022-12-28T20:36:31.011Z,6.50
2022-12-28T20:40:13.852Z,5.60
2022-12-28T20:43:55.559Z,5.13
2022-12-28T20:47:38.263Z,5.03
2022-12-28T20:51:20.916Z,3.70
2022-12-28T20:55:05.262Z,4.27
2022-12-28T20:58:48.082Z,3.90
2022-12-28T21:02:30.766Z,3.97
2022-12-28T21:06:13.889Z,4.03
2022-12-28T21:09:56.724Z,4.07
2022-12-28T21:13:44.509Z,2.87
2022-12-28T21:17:27.692Z,5.00
2022-12-28T21:21:15.159Z,5.10
2022-12-28T21:24:57.806Z,5.20
2022-12-28T21:28:42.087Z,4.53
2022-12-28T21:32:24.747Z,4.07
2022-12-28T21:36:09.846Z,3.40
2022-12-28T21:39:52.531Z,3.90
2022-12-28T21:43:35.530Z,4.97
2022-12-28T21:47:20.020Z,3.93
2022-12-28T21:51:27.476Z,3.57
2022-12-28T21:55:28.607Z,5.03
2022-12-28T21:59:11.940Z,3.67
2022-12-28T22:03:13.866Z,4.37
2022-12-28T22:06:57.269Z,3.47
2022-12-28T22:10:59.177Z,3.20
2022-12-28T22:14:41.897Z,2.77
2022-12-28T22:22:28.730Z,2.53
2022-12-28T22:26:11.373Z,3.03
2022-12-28T22:29:55.245Z,4.40
2022-12-28T22:33:39.597Z,3.23
2022-12-28T22:37:22.243Z,3.20
2022-12-28T22:41:05.011Z,2.80
2022-12-28T22:44:47.640Z,3.00
2022-12-28T22:48:31.066Z,3.37
2022-12-28T22:52:15.192Z,3.77
2022-12-28T22:55:58.867Z,3.30
2022-12-28T22:59:41.509Z,3.40
2022-12-28T23:03:24.259Z,5.03
2022-12-28T23:07:07.120Z,3.67
2022-12-28T23:10:56.096Z,3.17
2022-12-28T23:14:56.269Z,3.30
2022-12-28T23:18:56.505Z,2.07
2022-12-28T23:22:56.892Z,1.80
2022-12-28T23:26:58.410Z,2.33
2022-12-28T23:30:43.634Z,3.57
2022-12-28T23:34:26.338Z,2.33
2022-12-28T23:38:09.118Z,2.83
2022-12-28T23:41:53.483Z,3.77
2022-12-28T23:45:36.955Z,4.03
2022-12-28T23:49:19.944Z,3.33
2022-12-28T23:53:02.598Z,2.43
2022-12-28T23:56:45.871Z,1.63
